Terminal Aerodrome Forecast
Issued by NWS Shreveport, LA

Home | Current Version | Previous Version | Text Only | Print | Product List | Glossary On
Versions: 1 2 3 4 5 6 7 8 9 10 11 12 13 14 15
000
FTUS44 KSHV 302300
TAFLFK
TAF
KLFK 302320Z 0100/0124 13008KT P6SM FEW040 FEW110
      TEMPO 0108/0110 3SM BR BKN015
     FM011000 14004KT 3SM BR OVC015
      TEMPO 0110/0114 1SM BR BKN005
     FM011600 16006KT P6SM BKN025
     FM011800 17006KT P6SM SCT030=

USA.gov is the U.S. government's official web portal to all federal, state and local government web resources and services.